createdAt,value
2016-11-14T00:00:53.694Z,99.99
2016-11-14T00:01:53.804Z,99.99
2016-11-14T00:02:53.703Z,99.99
2016-11-14T00:03:53.848Z,99.99
2016-11-14T00:04:53.725Z,99.99
2016-11-14T00:05:53.735Z,99.99
2016-11-14T00:06:54.430Z,99.99
2016-11-14T00:07:54.187Z,99.99
2016-11-14T00:08:54.204Z,99.99
2016-11-14T00:09:53.739Z,99.99
2016-11-14T00:10:53.732Z,99.99
2016-11-14T00:11:54.336Z,99.99
2016-11-14T00:12:54.081Z,99.99
2016-11-14T00:13:53.977Z,99.99
2016-11-14T00:14:54.230Z,99.99
2016-11-14T00:15:53.731Z,99.99
2016-11-14T00:16:53.981Z,99.99
2016-11-14T00:17:53.977Z,99.99
2016-11-14T00:18:53.951Z,99.99
2016-11-14T00:19:54.069Z,99.99
2016-11-14T00:20:53.737Z,99.99
2016-11-14T00:21:53.949Z,99.99
2016-11-14T00:22:54.071Z,99.99
2016-11-14T00:23:54.340Z,99.99
2016-11-14T00:24:54.303Z,99.99
2016-11-14T00:25:54.325Z,99.99
2016-11-14T00:26:53.861Z,99.99
2016-11-14T00:27:53.858Z,99.99
2016-11-14T00:28:54.180Z,99.99
2016-11-14T00:29:53.832Z,99.99
2016-11-14T00:30:54.458Z,99.99
2016-11-14T00:31:54.235Z,99.99
2016-11-14T00:32:54.552Z,99.99
2016-11-14T00:33:54.455Z,99.99
2016-11-14T00:34:54.435Z,99.99
2016-11-14T00:35:54.463Z,99.99
2016-11-14T00:36:54.349Z,99.99
2016-11-14T00:37:55.308Z,99.99
2016-11-14T00:38:54.347Z,99.99
2016-11-14T00:39:54.097Z,99.99
2016-11-14T00:40:54.469Z,99.99
2016-11-14T00:41:53.993Z,99.99
2016-11-14T00:42:54.677Z,99.99
2016-11-14T00:43:54.210Z,99.99
2016-11-14T00:44:54.713Z,99.99
2016-11-14T00:45:54.798Z,99.99
2016-11-14T00:46:54.708Z,99.99
2016-11-14T00:47:54.837Z,99.99
2016-11-14T00:48:54.475Z,99.99
2016-11-14T00:49:54.597Z,99.99
2016-11-14T00:50:54.714Z,99.99
2016-11-14T00:51:54.805Z,99.99
2016-11-14T00:52:54.701Z,99.99
2016-11-14T00:53:54.713Z,99.99
2016-11-14T00:54:54.364Z,99.99
2016-11-14T00:55:54.718Z,99.99
2016-11-14T00:56:54.698Z,99.99
2016-11-14T00:57:54.933Z,99.99
2016-11-14T00:58:55.204Z,99.99
2016-11-14T00:59:54.551Z,99.99
2016-11-14T01:00:54.968Z,99.99
2016-11-14T01:01:55.074Z,99.99
2016-11-14T01:02:54.577Z,99.99
2016-11-14T01:03:54.335Z,99.99
2016-11-14T01:04:54.498Z,99.99
2016-11-14T01:05:54.961Z,99.99
2016-11-14T01:06:54.464Z,99.99
2016-11-14T01:07:54.566Z,99.99
2016-11-14T01:08:54.968Z,99.99
2016-11-14T01:09:54.806Z,99.99
2016-11-14T01:10:55.564Z,99.99
2016-11-14T01:11:55.084Z,99.99
2016-11-14T01:12:55.219Z,99.99
2016-11-14T01:13:55.185Z,99.99
2016-11-14T01:14:55.184Z,99.99
2016-11-14T01:15:54.853Z,99.99
2016-11-14T01:16:54.942Z,99.99
2016-11-14T01:17:55.449Z,99.99
2016-11-14T01:18:55.062Z,99.99
2016-11-14T01:19:55.329Z,99.99
2016-11-14T01:20:55.090Z,99.99
2016-11-14T01:21:55.455Z,99.99
2016-11-14T01:22:55.819Z,99.99
2016-11-14T01:23:54.967Z,99.99
2016-11-14T01:24:55.182Z,99.99
2016-11-14T01:25:57.138Z,99.99
2016-11-14T01:26:55.566Z,99.99
2016-11-14T01:27:55.657Z,99.99
2016-11-14T01:28:55.415Z,99.99
2016-11-14T01:29:55.559Z,99.99
2016-11-14T01:30:55.102Z,99.99
2016-11-14T01:31:54.972Z,99.99
2016-11-14T01:32:55.103Z,99.99
2016-11-14T01:33:55.458Z,99.99
2016-11-14T01:34:55.580Z,99.99
2016-11-14T01:35:56.519Z,99.99
2016-11-14T01:36:56.899Z,99.99
2016-11-14T01:37:56.544Z,99.99
2016-11-14T01:38:55.331Z,99.99
2016-11-14T01:39:56.305Z,99.99
2016-11-14T01:40:55.702Z,99.99
2016-11-14T01:41:56.049Z,99.99
2016-11-14T01:42:56.175Z,99.99
2016-11-14T01:43:55.710Z,99.99
2016-11-14T01:44:55.703Z,99.99
2016-11-14T01:45:55.562Z,99.99
2016-11-14T01:46:56.173Z,99.99
2016-11-14T01:47:55.596Z,99.99
2016-11-14T01:48:55.346Z,99.99
2016-11-14T01:49:56.296Z,99.99
2016-11-14T01:50:55.228Z,99.99
2016-11-14T01:51:55.460Z,99.99
2016-11-14T01:52:55.586Z,99.99
2016-11-14T01:53:55.327Z,99.99
2016-11-14T01:54:54.842Z,99.99
2016-11-14T01:55:55.306Z,99.99
2016-11-14T01:56:55.342Z,99.99
2016-11-14T01:57:55.327Z,99.99
2016-11-14T01:58:56.285Z,99.99
2016-11-14T01:59:55.559Z,99.99
2016-11-14T02:00:56.195Z,99.99
2016-11-14T02:01:55.232Z,99.99
2016-11-14T02:02:56.558Z,99.99
2016-11-14T02:03:55.458Z,99.99
2016-11-14T02:04:55.326Z,99.99
2016-11-14T02:05:55.221Z,99.99
2016-11-14T02:06:55.210Z,99.99
2016-11-14T02:07:55.346Z,99.99
2016-11-14T02:08:56.078Z,99.99
2016-11-14T02:09:55.202Z,99.99
2016-11-14T02:10:55.471Z,99.99
2016-11-14T02:11:55.477Z,99.99
2016-11-14T02:12:55.475Z,99.99
2016-11-14T02:13:55.723Z,99.99
2016-11-14T02:14:55.599Z,99.99
2016-11-14T02:15:55.467Z,99.99
2016-11-14T02:16:55.721Z,99.99
2016-11-14T02:17:55.237Z,99.99
2016-11-14T02:18:55.075Z,99.99
2016-11-14T02:19:55.242Z,99.99
2016-11-14T02:20:55.114Z,99.99
2016-11-14T02:21:55.123Z,99.99
2016-11-14T02:22:55.965Z,99.99
2016-11-14T02:23:55.598Z,99.99
2016-11-14T02:24:55.602Z,99.99
2016-11-14T02:25:55.232Z,99.99
2016-11-14T02:26:55.604Z,99.99
2016-11-14T02:27:55.953Z,99.99
2016-11-14T02:28:55.615Z,99.99
2016-11-14T02:29:55.486Z,99.99
2016-11-14T02:30:55.335Z,99.99
2016-11-14T02:31:55.495Z,99.99
2016-11-14T02:32:55.710Z,99.99
2016-11-14T02:33:56.084Z,99.99
2016-11-14T02:34:55.496Z,99.99
2016-11-14T02:35:55.358Z,99.99
2016-11-14T02:36:55.352Z,99.99
2016-11-14T02:37:55.361Z,99.99
2016-11-14T02:38:55.484Z,99.99
2016-11-14T02:39:55.488Z,99.99
2016-11-14T02:40:55.247Z,99.99
2016-11-14T02:41:55.347Z,99.99
2016-11-14T02:42:55.468Z,99.99
2016-11-14T02:43:56.073Z,99.99
2016-11-14T02:44:55.259Z,99.99
2016-11-14T02:45:55.698Z,99.99
2016-11-14T02:46:55.134Z,99.99
2016-11-14T02:47:55.961Z,99.99
2016-11-14T02:48:56.085Z,99.99
2016-11-14T02:49:55.618Z,99.99
2016-11-14T02:50:55.573Z,99.99
2016-11-14T02:51:55.483Z,99.99
2016-11-14T02:52:55.620Z,99.99
2016-11-14T02:53:55.472Z,99.99
2016-11-14T02:54:55.467Z,99.99
2016-11-14T02:55:55.976Z,99.99
2016-11-14T02:56:55.477Z,99.99
2016-11-14T02:57:55.495Z,99.99
2016-11-14T02:58:55.580Z,99.99
2016-11-14T02:59:55.726Z,99.99
2016-11-14T03:00:55.499Z,99.99
2016-11-14T03:01:55.621Z,99.99
2016-11-14T03:02:55.588Z,99.99
2016-11-14T03:03:55.618Z,99.99
2016-11-14T03:04:55.622Z,99.99
2016-11-14T03:05:56.070Z,99.99
2016-11-14T03:06:56.089Z,99.99
2016-11-14T03:07:55.609Z,99.99
2016-11-14T03:08:55.506Z,99.99
2016-11-14T03:09:56.219Z,99.99
2016-11-14T03:10:56.079Z,99.99
2016-11-14T03:11:55.628Z,99.99
2016-11-14T03:12:55.626Z,99.99
2016-11-14T03:13:55.744Z,99.99
2016-11-14T03:14:55.849Z,99.99
2016-11-14T03:15:55.715Z,99.99
2016-11-14T03:16:55.889Z,99.99
2016-11-14T03:17:55.730Z,99.99
2016-11-14T03:18:55.627Z,99.99
2016-11-14T03:19:55.871Z,99.99
2016-11-14T03:20:55.633Z,99.99
2016-11-14T03:21:56.204Z,99.99
2016-11-14T03:22:56.233Z,99.99
2016-11-14T03:23:55.725Z,99.99
2016-11-14T03:24:56.077Z,99.99
2016-11-14T03:25:56.118Z,99.99
2016-11-14T03:26:56.001Z,99.99
2016-11-14T03:27:55.730Z,99.99
2016-11-14T03:28:56.371Z,99.99
2016-11-14T03:29:56.241Z,99.99
2016-11-14T03:30:55.747Z,99.99
2016-11-14T03:31:56.011Z,99.99
2016-11-14T03:32:55.982Z,99.99
2016-11-14T03:33:56.207Z,99.99
2016-11-14T03:34:56.242Z,99.99
2016-11-14T03:35:56.573Z,99.99
2016-11-14T03:36:56.093Z,99.99
2016-11-14T03:37:56.335Z,99.99
2016-11-14T03:38:56.505Z,99.99
2016-11-14T03:39:56.088Z,99.99
2016-11-14T03:40:56.325Z,99.99
2016-11-14T03:41:56.119Z,99.99
2016-11-14T03:42:56.459Z,99.99
2016-11-14T03:43:56.498Z,99.99
2016-11-14T03:44:56.566Z,99.99
2016-11-14T03:45:56.113Z,99.99
2016-11-14T03:46:56.401Z,99.99
2016-11-14T03:47:56.256Z,99.99
2016-11-14T03:48:56.392Z,99.99
2016-11-14T03:49:56.370Z,99.99
2016-11-14T03:50:56.564Z,99.99
2016-11-14T03:51:56.849Z,99.99
2016-11-14T03:52:56.614Z,99.99
2016-11-14T03:53:56.386Z,99.99
2016-11-14T03:54:56.967Z,99.99
2016-11-14T03:55:56.469Z,99.99
2016-11-14T03:56:56.811Z,99.99
2016-11-14T03:57:56.881Z,99.99
2016-11-14T03:58:56.974Z,99.99
2016-11-14T03:59:56.349Z,99.99
2016-11-14T04:00:56.352Z,99.99
2016-11-14T04:01:57.057Z,99.99
2016-11-14T04:02:56.694Z,99.99
2016-11-14T04:03:56.374Z,99.99
2016-11-14T04:04:56.859Z,99.99
2016-11-14T04:05:57.095Z,99.99
2016-11-14T04:06:56.223Z,99.99
2016-11-14T04:07:56.481Z,99.99
2016-11-14T04:08:56.751Z,99.99
2016-11-14T04:09:56.365Z,99.99
2016-11-14T04:10:56.624Z,99.99
2016-11-14T04:11:56.834Z,99.99
2016-11-14T04:12:57.066Z,99.99
2016-11-14T04:13:57.078Z,99.99
2016-11-14T04:14:56.950Z,99.99
2016-11-14T04:15:56.982Z,99.99
2016-11-14T04:16:56.630Z,99.99
2016-11-14T04:17:56.983Z,99.99
2016-11-14T04:18:56.724Z,99.99
2016-11-14T04:19:57.226Z,99.99
2016-11-14T04:20:56.501Z,99.99
2016-11-14T04:21:58.399Z,99.99
2016-11-14T04:22:56.745Z,99.99
2016-11-14T04:23:56.739Z,99.99
2016-11-14T04:24:57.107Z,99.99
2016-11-14T04:25:56.710Z,99.99
2016-11-14T04:26:56.840Z,99.99
2016-11-14T04:27:57.607Z,99.99
2016-11-14T04:28:56.946Z,99.99
2016-11-14T04:29:57.082Z,99.99
2016-11-14T04:30:57.191Z,99.99
2016-11-14T04:31:57.238Z,99.99
2016-11-14T04:32:56.751Z,99.99
2016-11-14T04:33:57.482Z,99.99
2016-11-14T04:34:57.954Z,99.99
2016-11-14T04:35:57.689Z,99.99
2016-11-14T04:36:56.955Z,99.99
2016-11-14T04:37:57.596Z,99.99
2016-11-14T04:38:57.318Z,99.99
2016-11-14T04:39:57.121Z,99.99
2016-11-14T04:40:57.494Z,99.99
2016-11-14T04:41:57.958Z,99.99
2016-11-14T04:42:57.848Z,99.99
2016-11-14T04:43:58.434Z,99.99
2016-11-14T04:44:58.796Z,99.99
2016-11-14T04:45:57.365Z,99.99
2016-11-14T04:46:57.837Z,99.99
2016-11-14T04:47:57.379Z,99.99
2016-11-14T04:48:57.099Z,99.99
2016-11-14T04:49:57.600Z,99.99
2016-11-14T04:50:57.365Z,99.99
2016-11-14T04:51:57.727Z,99.99
2016-11-14T04:52:57.963Z,99.99
2016-11-14T04:53:58.208Z,99.99
2016-11-14T04:54:57.587Z,99.99
2016-11-14T04:55:58.333Z,99.99
2016-11-14T04:56:58.328Z,99.99
2016-11-14T04:57:57.731Z,99.99
2016-11-14T04:58:58.444Z,99.99
2016-11-14T04:59:57.710Z,99.99
2016-11-14T05:00:57.484Z,99.99
2016-11-14T05:01:57.722Z,99.99
2016-11-14T05:02:56.886Z,99.99
2016-11-14T05:03:57.851Z,99.99
2016-11-14T05:04:57.810Z,99.99
2016-11-14T05:05:57.140Z,99.99
2016-11-14T05:06:57.491Z,99.99
2016-11-14T05:07:56.742Z,99.99
2016-11-14T05:08:57.118Z,99.99
2016-11-14T05:09:58.452Z,99.99
2016-11-14T05:10:56.507Z,99.99
2016-11-14T05:11:56.843Z,99.99
2016-11-14T05:12:56.662Z,99.99
2016-11-14T05:13:56.715Z,99.99
2016-11-14T05:14:56.912Z,99.99
2016-11-14T05:15:56.919Z,99.99
2016-11-14T05:16:56.784Z,99.99
2016-11-14T05:17:56.937Z,99.99
2016-11-14T05:18:56.699Z,99.99
2016-11-14T05:19:56.701Z,99.99
2016-11-14T05:20:56.710Z,99.99
2016-11-14T05:21:57.139Z,99.99
2016-11-14T05:22:56.904Z,99.99
2016-11-14T05:23:56.922Z,99.99
2016-11-14T05:24:56.891Z,99.99
2016-11-14T05:25:56.935Z,99.99
2016-11-14T05:26:56.989Z,99.99
2016-11-14T05:27:56.802Z,99.99
2016-11-14T05:28:56.889Z,99.99
2016-11-14T05:29:56.803Z,99.99
2016-11-14T05:30:56.783Z,99.99
2016-11-14T05:31:56.818Z,99.99
2016-11-14T05:32:57.027Z,99.99
2016-11-14T05:33:56.939Z,99.99
2016-11-14T05:34:57.119Z,99.99
2016-11-14T05:35:56.819Z,99.99
2016-11-14T05:36:56.961Z,99.99
2016-11-14T05:37:57.063Z,99.99
2016-11-14T05:38:56.970Z,99.99
2016-11-14T05:39:57.016Z,99.99
2016-11-14T05:40:57.239Z,99.99
2016-11-14T05:41:57.029Z,99.99
2016-11-14T05:42:57.265Z,99.99
2016-11-14T05:43:56.979Z,99.99
2016-11-14T05:44:57.308Z,99.99
2016-11-14T05:45:57.038Z,99.99
2016-11-14T05:46:56.928Z,99.99
2016-11-14T05:47:57.058Z,99.99
2016-11-14T05:48:57.082Z,99.99
2016-11-14T05:49:57.125Z,99.99
2016-11-14T05:50:57.103Z,99.99
2016-11-14T05:51:57.352Z,99.99
2016-11-14T05:52:57.042Z,99.99
2016-11-14T05:53:57.021Z,99.99
2016-11-14T05:54:57.018Z,99.99
2016-11-14T05:55:57.069Z,99.99
2016-11-14T05:56:57.054Z,99.99
2016-11-14T05:57:57.269Z,99.99
2016-11-14T05:58:57.335Z,99.99
2016-11-14T05:59:57.186Z,99.99
2016-11-14T06:00:57.486Z,99.99
2016-11-14T06:01:57.136Z,99.99
2016-11-14T06:02:57.144Z,99.99
2016-11-14T06:03:57.187Z,99.99
2016-11-14T06:04:57.385Z,99.99
2016-11-14T06:05:57.121Z,99.99
2016-11-14T06:06:57.323Z,99.99
2016-11-14T06:07:57.178Z,99.99
2016-11-14T06:08:57.175Z,99.99
2016-11-14T06:09:57.298Z,99.99
2016-11-14T06:10:57.309Z,99.99
2016-11-14T06:11:57.740Z,99.99
2016-11-14T06:12:57.299Z,99.99
2016-11-14T06:13:57.318Z,99.99
2016-11-14T06:14:57.311Z,99.99
2016-11-14T06:15:57.290Z,99.99
2016-11-14T06:16:57.339Z,99.99
2016-11-14T06:17:57.289Z,99.99
2016-11-14T06:18:57.305Z,99.99
2016-11-14T06:19:57.862Z,99.99
2016-11-14T06:20:57.421Z,99.99
2016-11-14T06:21:57.404Z,99.99
2016-11-14T06:22:57.825Z,99.99
2016-11-14T06:23:57.412Z,99.99
2016-11-14T06:24:57.299Z,99.99
2016-11-14T06:25:57.971Z,99.99
2016-11-14T06:26:57.631Z,99.99
2016-11-14T06:27:57.403Z,99.99
2016-11-14T06:28:57.758Z,99.99
2016-11-14T06:29:57.414Z,99.99
2016-11-14T06:30:57.510Z,99.99
2016-11-14T06:31:57.724Z,99.99
2016-11-14T06:32:57.326Z,99.99
2016-11-14T06:33:57.528Z,99.99
2016-11-14T06:34:57.856Z,99.99
2016-11-14T06:35:57.500Z,99.99
2016-11-14T06:36:57.406Z,99.99
2016-11-14T06:37:57.531Z,99.99
2016-11-14T06:38:57.561Z,99.99
2016-11-14T06:39:57.598Z,99.99
2016-11-14T06:40:57.560Z,99.99
2016-11-14T06:41:57.508Z,99.99
2016-11-14T06:42:57.533Z,99.99
2016-11-14T06:43:58.080Z,99.99
2016-11-14T06:44:57.637Z,99.99
2016-11-14T06:45:57.666Z,99.99
2016-11-14T06:46:57.631Z,99.99
2016-11-14T06:47:58.021Z,99.99
2016-11-14T06:48:57.648Z,99.99
2016-11-14T06:49:58.093Z,99.99
2016-11-14T06:50:57.754Z,99.99
2016-11-14T06:51:57.803Z,99.99
2016-11-14T06:52:57.708Z,99.99
2016-11-14T06:53:57.737Z,99.99
2016-11-14T06:54:57.661Z,99.99
2016-11-14T06:55:57.653Z,99.99
2016-11-14T06:56:57.622Z,99.99
2016-11-14T06:57:57.603Z,99.99
2016-11-14T06:58:57.844Z,99.99
2016-11-14T06:59:57.759Z,99.99
2016-11-14T07:00:58.165Z,99.99
2016-11-14T07:01:58.024Z,99.99
2016-11-14T07:02:58.102Z,99.99
2016-11-14T07:03:57.650Z,99.99
2016-11-14T07:04:57.971Z,99.99
2016-11-14T07:05:57.759Z,99.99
2016-11-14T07:06:58.011Z,99.99
2016-11-14T07:07:57.750Z,99.99
2016-11-14T07:08:57.935Z,99.99
2016-11-14T07:09:57.923Z,99.99
2016-11-14T07:10:57.873Z,99.99
2016-11-14T07:11:57.826Z,99.99
2016-11-14T07:12:57.898Z,99.99
2016-11-14T07:13:57.908Z,99.99
2016-11-14T07:14:58.182Z,99.99
2016-11-14T07:15:58.240Z,99.99
2016-11-14T07:16:57.973Z,99.99
2016-11-14T07:17:57.851Z,99.99
2016-11-14T07:18:58.145Z,99.99
2016-11-14T07:19:57.944Z,99.99
2016-11-14T07:20:57.882Z,99.99
2016-11-14T07:21:58.320Z,99.99
2016-11-14T07:22:57.957Z,99.99
2016-11-14T07:23:58.314Z,99.99
2016-11-14T07:24:58.142Z,99.99
2016-11-14T07:25:58.319Z,99.99
2016-11-14T07:26:57.963Z,99.99
2016-11-14T07:27:58.024Z,99.99
2016-11-14T07:28:58.373Z,99.99
2016-11-14T07:29:58.099Z,99.99
2016-11-14T07:30:58.013Z,99.99
2016-11-14T07:31:58.385Z,99.99
2016-11-14T07:32:58.082Z,99.99
2016-11-14T07:33:58.479Z,99.99
2016-11-14T07:34:58.218Z,99.99
2016-11-14T07:35:58.226Z,99.99
2016-11-14T07:36:57.995Z,99.99
2016-11-14T07:37:58.455Z,99.99
2016-11-14T07:38:58.486Z,99.99
2016-11-14T07:39:58.535Z,99.99
2016-11-14T07:40:58.576Z,99.99
2016-11-14T07:41:58.178Z,99.99
2016-11-14T07:42:58.111Z,99.99
2016-11-14T07:43:58.244Z,99.99
2016-11-14T07:44:58.121Z,99.99
2016-11-14T07:45:58.228Z,99.99
2016-11-14T07:46:58.731Z,99.99
2016-11-14T07:47:58.626Z,99.99
2016-11-14T07:48:58.277Z,99.99
2016-11-14T07:49:58.207Z,99.99
2016-11-14T07:50:58.195Z,99.99
2016-11-14T07:51:58.242Z,99.99
2016-11-14T07:52:58.411Z,99.99
2016-11-14T07:53:58.558Z,99.99
2016-11-14T07:54:58.290Z,99.99
2016-11-14T07:55:58.400Z,99.99
2016-11-14T07:56:58.422Z,99.99
2016-11-14T07:57:58.929Z,99.99
2016-11-14T07:58:58.399Z,99.99
2016-11-14T07:59:58.726Z,99.99
2016-11-14T08:00:58.442Z,99.99
2016-11-14T08:01:58.355Z,99.99
2016-11-14T08:02:58.458Z,99.99
2016-11-14T08:03:58.361Z,99.99
2016-11-14T08:04:58.445Z,99.99
2016-11-14T08:05:58.830Z,99.99
2016-11-14T08:06:58.485Z,99.99
2016-11-14T08:07:58.483Z,99.99
2016-11-14T08:08:58.906Z,99.99
2016-11-14T08:09:58.483Z,99.99
2016-11-14T08:10:58.861Z,99.99
2016-11-14T08:11:58.478Z,99.99
2016-11-14T08:12:58.471Z,99.99
2016-11-14T08:13:58.497Z,99.99
2016-11-14T08:14:58.726Z,99.99
2016-11-14T08:15:58.551Z,99.99
2016-11-14T08:16:59.055Z,99.99
2016-11-14T08:17:58.464Z,99.99
2016-11-14T08:18:58.494Z,99.99
2016-11-14T08:19:58.557Z,99.99
2016-11-14T08:20:58.526Z,99.99
2016-11-14T08:21:58.683Z,99.99
2016-11-14T08:22:59.126Z,99.99
2016-11-14T08:23:58.533Z,99.99
2016-11-14T08:24:58.611Z,99.99
2016-11-14T08:25:58.608Z,99.99
2016-11-14T08:26:58.538Z,99.99
2016-11-14T08:27:58.571Z,99.99
2016-11-14T08:28:58.586Z,99.99
2016-11-14T08:29:58.689Z,99.99
2016-11-14T08:30:58.746Z,99.99
2016-11-14T08:31:58.704Z,99.99
2016-11-14T08:32:58.627Z,99.99
2016-11-14T08:33:58.719Z,99.99
2016-11-14T08:34:58.706Z,99.99
2016-11-14T08:35:58.687Z,99.99
2016-11-14T08:36:58.852Z,99.99
2016-11-14T08:37:58.731Z,99.99
2016-11-14T08:38:58.662Z,99.99
2016-11-14T08:39:58.736Z,99.52
2016-11-14T08:40:58.831Z,99.09
2016-11-14T08:41:59.329Z,98.81
2016-11-14T08:42:59.189Z,98.71
2016-11-14T08:43:58.841Z,97.58
2016-11-14T08:44:59.333Z,97.3
2016-11-14T08:45:58.975Z,96.07
2016-11-14T08:46:58.852Z,96.07
2016-11-14T08:47:58.837Z,95.78
2016-11-14T08:48:58.844Z,96.21
2016-11-14T08:49:59.189Z,97.2
2016-11-14T08:50:58.864Z,96.07
2016-11-14T08:51:58.863Z,95.97
2016-11-14T08:52:59.229Z,96.16
2016-11-14T08:53:58.987Z,96.26
2016-11-14T08:54:58.933Z,96.26
2016-11-14T08:55:58.947Z,95.97
2016-11-14T08:56:58.935Z,96.07
2016-11-14T08:57:58.956Z,95.5
2016-11-14T08:58:59.029Z,95.5
2016-11-14T08:59:59.338Z,94.65
2016-11-14T09:00:59.200Z,94.46
2016-11-14T09:01:59.052Z,94.18
2016-11-14T09:02:59.027Z,93.7
2016-11-14T09:03:58.998Z,93.13
2016-11-14T09:04:59.022Z,93.23
2016-11-14T09:05:59.061Z,93.13
2016-11-14T09:06:59.222Z,93.23
2016-11-14T09:07:59.453Z,93.23
2016-11-14T09:08:59.208Z,92.57
2016-11-14T09:09:59.185Z,91.91
2016-11-14T09:10:59.625Z,91.72
2016-11-14T09:11:59.521Z,92.66
2016-11-14T09:12:59.170Z,92.38
2016-11-14T09:13:59.177Z,91.34
2016-11-14T09:14:59.771Z,91.81
2016-11-14T09:15:59.292Z,91.81
2016-11-14T09:16:59.322Z,92.76
2016-11-14T09:17:59.347Z,92.47
2016-11-14T09:18:59.304Z,92.19
2016-11-14T09:19:59.295Z,91.62
2016-11-14T09:20:59.764Z,91.34
2016-11-14T09:21:59.675Z,91.91
2016-11-14T09:22:59.370Z,91.72
2016-11-14T09:23:59.522Z,91.01
2016-11-14T09:24:59.470Z,90.91
2016-11-14T09:25:59.891Z,90.16
2016-11-14T09:26:59.312Z,87.93
2016-11-14T09:27:59.503Z,89.02
2016-11-14T09:28:59.427Z,89.21
2016-11-14T09:29:59.848Z,90.16
2016-11-14T09:31:00.159Z,90.06
2016-11-14T09:31:59.661Z,90.06
2016-11-14T09:32:59.897Z,89.69
2016-11-14T09:33:59.923Z,89.5
2016-11-14T09:34:59.767Z,90.16
2016-11-14T09:35:59.665Z,89.87
2016-11-14T09:36:59.617Z,89.12
2016-11-14T09:38:00.022Z,89.59
2016-11-14T09:38:59.695Z,89.4
2016-11-14T09:40:00.157Z,89.59
2016-11-14T09:40:59.642Z,90.06
2016-11-14T09:41:59.629Z,90.34
2016-11-14T09:43:00.011Z,90.96
2016-11-14T09:43:59.906Z,90.53
2016-11-14T09:45:00.118Z,90.91
2016-11-14T09:45:59.788Z,90.25
2016-11-14T09:46:59.782Z,90.34
2016-11-14T09:47:59.829Z,90.25
2016-11-14T09:48:59.791Z,90.06
2016-11-14T09:49:59.761Z,88.74
2016-11-14T09:51:00.010Z,88.55
2016-11-14T09:51:59.822Z,88.64
2016-11-14T09:52:59.779Z,89.12
2016-11-14T09:54:00.100Z,89.21
2016-11-14T09:54:59.945Z,88.83
2016-11-14T09:56:00.128Z,88.21
2016-11-14T09:56:59.804Z,88.4
2016-11-14T09:58:00.298Z,87.93
2016-11-14T09:58:59.902Z,87.17
2016-11-14T09:59:59.993Z,87.17
2016-11-14T10:01:00.033Z,87.36
2016-11-14T10:01:59.950Z,87.84
2016-11-14T10:02:59.981Z,86.98
2016-11-14T10:04:00.233Z,86.51
2016-11-14T10:04:59.980Z,86.51
2016-11-14T10:06:00.091Z,87.27
2016-11-14T10:07:00.378Z,86.04
2016-11-14T10:07:59.997Z,85.94
2016-11-14T10:09:00.124Z,85.85
2016-11-14T10:10:00.415Z,86.13
2016-11-14T10:11:00.098Z,86.6
2016-11-14T10:12:00.360Z,86.04
2016-11-14T10:13:00.172Z,86.7
2016-11-14T10:14:00.175Z,87.46
2016-11-14T10:15:00.157Z,86.79
2016-11-14T10:16:00.264Z,86.32
2016-11-14T10:17:00.245Z,86.79
2016-11-14T10:18:00.179Z,86.79
2016-11-14T10:19:00.390Z,86.6
2016-11-14T10:20:00.663Z,86.13
2016-11-14T10:21:00.729Z,86.7
2016-11-14T10:22:00.734Z,86.32
2016-11-14T10:23:00.627Z,86.7
2016-11-14T10:24:00.481Z,87.74
2016-11-14T10:25:00.370Z,86.6
2016-11-14T10:26:00.387Z,85.89
2016-11-14T10:27:00.327Z,85.32
2016-11-14T10:28:00.379Z,84.66
2016-11-14T10:29:00.704Z,85.8
2016-11-14T10:30:00.495Z,86.46
2016-11-14T10:31:00.539Z,86.41
2016-11-14T10:32:00.546Z,86.32
2016-11-14T10:33:00.532Z,86.18
2016-11-14T10:34:00.522Z,86.08
2016-11-14T10:35:00.488Z,86.65
2016-11-14T10:36:00.603Z,86.74
2016-11-14T10:37:00.527Z,86.08
2016-11-14T10:38:00.547Z,85.42
2016-11-14T10:39:00.624Z,84.75
2016-11-14T10:40:00.844Z,85.32
2016-11-14T10:41:01.095Z,85.7
2016-11-14T10:42:00.621Z,85.13
2016-11-14T10:43:00.612Z,85.51
2016-11-14T10:44:00.704Z,85.8
2016-11-14T10:45:01.145Z,85.42
2016-11-14T10:46:01.255Z,85.13
2016-11-14T10:47:01.096Z,85.42
2016-11-14T10:48:00.709Z,83.9
2016-11-14T10:49:00.737Z,84.09
2016-11-14T10:50:00.743Z,84
2016-11-14T10:51:01.389Z,84
2016-11-14T10:52:00.790Z,83.9
2016-11-14T10:53:00.958Z,84.28
2016-11-14T10:54:00.917Z,84.66
2016-11-14T10:55:00.855Z,84.85
2016-11-14T10:56:01.326Z,83.43
2016-11-14T10:57:01.342Z,83.62
2016-11-14T10:58:00.885Z,84.28
2016-11-14T10:59:00.919Z,84
2016-11-14T11:00:00.985Z,84.66
2016-11-14T11:01:01.321Z,84.66
2016-11-14T11:02:00.979Z,84.32
2016-11-14T11:03:00.976Z,83.18
2016-11-14T11:04:01.102Z,83.56
2016-11-14T11:05:00.982Z,83.94
2016-11-14T11:06:01.148Z,83.85
2016-11-14T11:07:01.346Z,83.18
2016-11-14T11:08:01.019Z,82.71
2016-11-14T11:09:01.139Z,82.62
2016-11-14T11:10:01.105Z,82.05
2016-11-14T11:11:01.219Z,79.82
2016-11-14T11:12:01.561Z,81.1
2016-11-14T11:13:01.236Z,81.48
2016-11-14T11:14:01.226Z,81.48
2016-11-14T11:15:01.529Z,81.1
2016-11-14T11:16:01.606Z,81.86
2016-11-14T11:17:01.306Z,81.95
2016-11-14T11:18:01.315Z,81.67
2016-11-14T11:19:01.572Z,81.62
2016-11-14T11:20:01.234Z,81.48
2016-11-14T11:21:01.262Z,81.95
2016-11-14T11:22:01.440Z,81.52
2016-11-14T11:23:01.684Z,79.82
2016-11-14T11:24:01.597Z,77.73
2016-11-14T11:25:01.472Z,75.11
2016-11-14T11:26:01.543Z,72.04
2016-11-14T11:27:01.423Z,71.41
2016-11-14T11:28:01.488Z,71.22
2016-11-14T11:29:01.825Z,70.75
2016-11-14T11:30:01.754Z,71.6
2016-11-14T11:31:01.486Z,71.51
2016-11-14T11:32:01.591Z,71.41
2016-11-14T11:33:01.858Z,70.28
2016-11-14T11:34:01.504Z,69.8
2016-11-14T11:35:01.592Z,68.85
2016-11-14T11:36:01.700Z,69.42
2016-11-14T11:37:01.721Z,69.33
2016-11-14T11:38:01.966Z,69.42
2016-11-14T11:39:01.658Z,69.57
2016-11-14T11:40:01.734Z,69.61
2016-11-14T11:41:01.669Z,69.71
2016-11-14T11:42:01.695Z,71.22
2016-11-14T11:43:02.047Z,70.56
2016-11-14T11:44:01.780Z,69.52
2016-11-14T11:45:02.098Z,68.38
2016-11-14T11:46:01.828Z,69.13
2016-11-14T11:47:01.914Z,69.04
2016-11-14T11:48:01.873Z,68.76
2016-11-14T11:49:02.246Z,68.29
2016-11-14T11:50:01.956Z,68.48
2016-11-14T11:51:01.976Z,68.95
2016-11-14T11:52:02.322Z,68.19
2016-11-14T11:53:01.974Z,69.61
2016-11-14T11:54:01.921Z,68.98
2016-11-14T11:55:02.262Z,67.37
2016-11-14T11:56:02.019Z,67.18
2016-11-14T11:57:02.581Z,68.1
2016-11-14T11:58:02.062Z,68.19
2016-11-14T11:59:02.067Z,68.66
2016-11-14T12:00:02.347Z,68.29
2016-11-14T12:01:02.535Z,68.76
2016-11-14T12:02:02.163Z,68.95
2016-11-14T12:03:02.254Z,68
2016-11-14T12:04:02.100Z,67.43
2016-11-14T12:05:02.498Z,68
2016-11-14T12:06:02.297Z,66.77
2016-11-14T12:07:02.305Z,66.58
2016-11-14T12:08:02.272Z,66.29
2016-11-14T12:09:02.261Z,65.95
2016-11-14T12:10:02.293Z,65.56
2016-11-14T12:11:02.628Z,65.47
2016-11-14T12:12:02.216Z,65.75
2016-11-14T12:13:02.274Z,66.1
2016-11-14T12:14:02.686Z,67.05
2016-11-14T12:15:02.459Z,66.39
2016-11-14T12:16:02.832Z,65.95
2016-11-14T12:17:02.704Z,64.71
2016-11-14T12:18:02.862Z,65.47
2016-11-14T12:19:02.416Z,65.85
2016-11-14T12:20:02.422Z,66.23
2016-11-14T12:21:02.466Z,66.33
2016-11-14T12:22:02.608Z,65.82
2016-11-14T12:23:02.584Z,66.14
2016-11-14T12:24:02.862Z,66.04
2016-11-14T12:25:02.928Z,65.85
2016-11-14T12:26:02.586Z,65.47
2016-11-14T12:27:02.921Z,65.95
2016-11-14T12:28:02.737Z,65.47
2016-11-14T12:29:03.036Z,65.37
2016-11-14T12:30:02.698Z,65.63
2016-11-14T12:31:02.753Z,66.39
2016-11-14T12:32:03.068Z,65.72
2016-11-14T12:33:02.705Z,65.75
2016-11-14T12:34:02.735Z,65.09
2016-11-14T12:35:03.041Z,65.44
2016-11-14T12:36:02.819Z,65.44
2016-11-14T12:37:02.807Z,65.06
2016-11-14T12:38:02.929Z,65.44
2016-11-14T12:39:02.870Z,64.4
2016-11-14T12:40:03.213Z,63.57
2016-11-14T12:41:02.955Z,64.43
2016-11-14T12:42:02.907Z,64.05
2016-11-14T12:43:03.036Z,63.48
2016-11-14T12:44:02.934Z,63.2
2016-11-14T12:45:02.937Z,62.62
2016-11-14T12:46:02.988Z,62.53
2016-11-14T12:47:03.394Z,61.42
2016-11-14T12:48:02.987Z,60.95
2016-11-14T12:49:03.035Z,59.36
2016-11-14T12:50:03.365Z,59.08
2016-11-14T12:51:03.399Z,59.55
2016-11-14T12:52:03.059Z,59.43
2016-11-14T12:53:03.187Z,59.71
2016-11-14T12:54:03.471Z,60.38
2016-11-14T12:55:03.159Z,60.1